Terminal Aerodrome Forecast
Issued by NWS

Home | Current Version | Previous Version | Text Only | Print | Product List | Glossary On
Versions: 1 2 3 4 5 6 7 8 9 10 11 12 13
000
FTUS44 KOUN 240521
TAFHBR
TAF
KHBR 240521Z 2406/2506 05012KT P6SM BKN100
      TEMPO 2406/2410 3SM TSRA OVC035CB
     FM241900 12010KT P6SM BKN060=

USA.gov is the U.S. government's official web portal to all federal, state and local government web resources and services.